Alamo, Nevada Weather observations

Data are for observation ending at time listed.
 Day   Time    Ave.   Ave.  Ave.  Vector   Max.   Stn.    Total    Solar   Ave.  
  of    of     Air    Rel.  Wind   Wind    Wind   Baro.  Precip.   Rad.    Soil  
Year   Day     Temp.  Hum.  Speed  Dir.    Gust   Pres.                    Temp. 
2020   (PST)    F      %     mph   deg.    mph     mb.     in.     W/m2     F   
------------------------------------------------------------------------------
 144   21:50   57.8    21    1.0    32      2.3   894.7    0.00       0    68.1
 144   22:00   57.0    22    0.9    45      1.8   894.7    0.00       0    67.9
 144   22:10   56.2    23    1.3    51      2.3   894.8    0.00       0    67.6
 144   22:20   55.5    24    1.1    75      3.0   895.0    0.00       0    67.4
 144   22:30   56.7    22    1.4   328      4.4   895.0    0.00       0    67.2
 144   22:40   57.4    22    1.2   343      3.7   895.1    0.00       0    67.0
 144   22:50   56.5    23    0.2    69      2.1   895.2    0.00       0    66.8
 144   23:00   54.8    27    0.2   193      2.6   895.3    0.00       0    66.6
 144   23:10   53.7    28    1.2   192      3.4   895.4    0.00       0    66.4
 144   23:20   52.5    30    0.7    49      2.6   895.4    0.00       0    66.2
 144   23:30   52.2    29    0.3    44      1.8   895.5    0.00       0    65.9
 144   23:40   52.1    29    0.3   283      1.5   895.5    0.00       0    65.8
 144   23:50   51.9    32    0.6     9      2.1   895.5    0.00       0    65.6
 145    0:00   51.9    31    0.8    40      2.0   895.5    0.00       0    65.3
 145    0:10   53.1    28    1.6   301      3.9   895.5    0.00       0    65.1
 145    0:20   54.9    26    2.6   287      5.1   895.6    0.00       0    64.9
 145    0:30   54.9    26    1.4   305      4.5   895.7    0.00       0    64.8
 145    0:40   53.6    29    0.8    54      3.4   895.6    0.00       0    64.6
 145    0:50   52.8    28    2.2    57      3.7   895.6    0.00       0    64.5
 145    1:00   53.3    27    1.8    16      3.7   895.6    0.00       0    64.3
 145    1:10   53.4    27    1.6     9      3.4   895.7    0.00       0    64.1
 145    1:20   53.1    27    2.7    28      5.3   895.7    0.00       0    64.0
 145    1:30   52.6    28    2.6    33      4.4   895.7    0.00       0    63.9
 145    1:40   51.6    29    2.2    43      4.0   895.7    0.00       0    63.8
 145    1:50   51.6    29    3.4    28      5.8   895.8    0.00       0    63.6
 145    2:00   52.0    28    2.5    10      5.3   895.9    0.00       0    63.5
 145    2:10   51.9    29    2.9    21      5.6   896.0    0.00       0    63.3
 145    2:20   51.7    29    3.4    22      5.3   896.1    0.00       0    63.2
 145    2:30   51.9    29    2.9     6      6.2   896.2    0.00       0    63.1
 145    2:40   51.4    30    2.6    21      5.0   896.3    0.00       0    63.0
 145    2:50   50.7    31    2.2    50      4.9   896.3    0.00       0    62.9
 145    3:00   50.6    31    2.3    55      4.7   896.3    0.00       0    62.7
 145    3:10   50.8    31    2.4    50      5.6   896.4    0.00       0    62.6
 145    3:20   50.6    32    2.3    49      4.5   896.6    0.00       0    62.5
 145    3:30   50.5    32    2.7    44      6.2   896.8    0.00       0    62.4
 145    3:40   50.1    33    2.6    37      5.7   897.0    0.00       0    62.3
 145    3:50   49.9    34    2.9    34      5.4   897.1    0.00       0    62.2
 145    4:00   49.9    35    2.3    30      4.7   897.2    0.00       0    62.0
 145    4:10   49.3    37    2.4    50      3.9   897.3    0.00       0    61.9
 145    4:20   49.2    37    1.9    60      3.4   897.3    0.00       0    61.8
 145    4:30   49.3    37    2.0    57      4.7   897.3    0.00       0    61.7
 145    4:40   50.2    34    2.2    50      5.5   897.4    0.00       5    61.6
 145    4:50   50.6    33    2.1    52      4.7   897.6    0.00       9    61.5
 145    5:00   50.4    33    2.4    28      4.0   897.7    0.00      14    61.4
 145    5:10   50.2    34    2.3    15      5.0   897.7    0.00      14    61.3
 145    5:20   50.4    34    2.5    14      4.3   897.8    0.00      72    61.2
 145    5:30   51.8    33    1.8    33      3.5   897.8    0.00     112    61.1
 145    5:40   52.9    32    1.8    46      3.3   897.9    0.00      40    61.1
 145    5:50   54.2    32    1.7    28      3.4   898.0    0.00      40    61.1
 145    6:00   55.6    32    2.3    15      3.8   898.2    0.00      47    61.3
 145    6:10   56.9    30    2.6    12      7.2   898.3    0.00     177    61.5
 145    6:20   58.0    29    3.4   351      7.0   898.2    0.00     265    61.8
 145    6:30   58.2    28    4.2   342      7.3   898.1    0.00     108    62.0
 145    6:40   58.1    29    3.4     8      7.3   898.1    0.00      41    62.3
 145    6:50   58.9    28    3.9   356      8.9   898.1    0.00      40    62.7
 145    7:00   60.8    25    5.0   320      9.6   898.1    0.00      42    63.0
 145    7:10   61.3    25    4.9   339     11.1   898.1    0.00      52    63.1
 145    7:20   61.6    25    5.3   348      9.0   898.2    0.00     207    63.2
 145    7:30   61.5    26    5.9   346     12.4   898.3    0.00      51    63.2
 145    7:40   62.3    25    5.7   342     10.4   898.3    0.00      39    63.2
 145    7:50   62.7    24    5.3   342     10.2   898.2    0.00      40    63.2
 145    8:00   63.6    23    4.0   325      9.9   898.2    0.00      40    63.2
 145    8:10   64.1    23    4.2   329      8.4   898.1    0.00      40    63.2
 145    8:20   64.6    23    5.0   326      9.1   898.1    0.00      41    63.2
 145    8:30   64.8    23    6.0   345     14.8   898.1    0.00      41    63.2
 145    8:40   64.9    23    6.3   346     11.5   898.0    0.00      40    63.2
 145    8:50   65.3    23    5.1   347      9.2   897.9    0.00      40    63.2
 145    9:00   66.1    22    5.8   330     11.7   897.9    0.00      53    63.3
 145    9:10   66.3    21    6.1   333     12.8   897.7    0.00      40    63.4
 145    9:20   67.1    21    6.1   326     12.6   897.7    0.00      48    63.5
 145    9:30   67.8    21    4.7   334      9.8   897.6    0.00      49    63.5
 145    9:40   68.1    19    5.9   328     14.2   897.6    0.00      61    63.6
 145    9:50   68.6    20    5.9   332     14.0   897.6    0.00     146    63.7
 145   10:00   69.1    19    5.1   323     11.4   897.6    0.00     100    63.8
 145   10:10   69.2    19    5.3   316     11.7   897.6    0.00      53    63.8
 145   10:20   70.1    19    4.5   311      9.0   897.6    0.00      59    64.0
 145   10:30   70.2    17    5.9   343     11.8   897.5    0.00      52    64.1
 145   10:40   70.3    17    5.0   358     11.1   897.4    0.00      63    64.2
 145   10:50   70.5    17    4.7    19     12.6   897.2    0.00      85    64.3
 145   11:00   71.2    16    4.6   348     10.8   897.2    0.00     122    64.5
 145   11:10   71.8    17    4.1   288     11.0   897.2    0.00     737    64.7
 145   11:20   72.5    15    5.1   352     14.1   897.1    0.00    1035    65.0
 145   11:30   72.2    14    3.9   343     11.3   896.9    0.00    1025    65.4
 145   11:40   74.0    14    4.8   308     12.5   896.7    0.00    1054    66.0
 145   11:50   74.0    13    5.7   342     13.7   896.6    0.00    1062    66.6
 145   12:00   73.6    13    5.1     5     10.8   896.6    0.00    1067    67.4
 145   12:10   74.4    13    5.1   318     10.1   896.5    0.00    1061    68.6
 145   12:20   75.6    12    6.4   337     13.2   896.3    0.00    1062    69.9
 145   12:30   75.2    12    5.0   348     12.9   896.0    0.00    1061    71.3
 145   12:40   76.0    12    6.1   328     12.3   895.9    0.00    1056    72.6
 145   12:50   75.9    12    5.3    13     13.6   895.8    0.00    1042    73.8
 145   13:00   75.9    12    5.0   336      9.9   895.7    0.00    1036    75.0
 145   13:10   76.4    12    3.8   359      7.3   895.5    0.00    1027    76.0
 145   13:20   77.0    12    6.4   352     13.8   895.5    0.00    1017    77.0
 145   13:30   77.2    12    4.6   349     11.5   895.5    0.00    1002    78.0
 145   13:40   78.4    11    5.8   326     12.2   895.3    0.00     989    78.8
 145   13:50   78.0    12    6.4   355     13.5   895.2    0.00     973    79.6
 145   14:00   77.3    12    4.8    12      8.7   895.1    0.00     955    80.4
 145   14:10   78.1    12    6.9   347     14.0   894.9    0.00     938    81.0
 145   14:20   78.5    12    6.4   332     13.9   894.8    0.00     923    81.4
 145   14:30   79.0    11    6.1   334     11.8   894.7    0.00     887    81.9
 145   14:40   79.2    12    5.0   313     13.2   894.5    0.00     813    82.3
 145   14:50   78.9    12    3.9   344      8.0   894.3    0.00     835    82.7
 145   15:00   78.5    12    4.4   351      9.1   894.2    0.00     785    83.1
 145   15:10   78.8    12    4.9    19     13.4   894.0    0.00     629    83.4
 145   15:20   78.5    12    5.4    11     13.1   893.9    0.00     732    83.6
 145   15:30   79.6    12    5.4   339      9.4   893.9    0.00     710    83.6
 145   15:40   79.7    12    5.2   329     12.0   893.8    0.00     609    83.5
 145   15:50   80.1    12    4.6   353      9.2   893.8    0.00     623    83.3
 145   16:00   79.3    12    5.6   354     12.6   893.8    0.00     613    82.7
 145   16:10   79.5    11    5.0   331     10.0   893.7    0.00     532    82.0
 145   16:20   79.5    11    5.0   346     15.0   893.7    0.00     548    81.3
 145   16:30   79.3    11    5.3   352     12.1   893.6    0.00     522    80.5
 145   16:40   79.6    11    5.3   343     10.6   893.6    0.00     444    79.9
 145   16:50   78.8    12    5.8     1     11.3   893.7    0.00     443    79.3
 145   17:00   78.7    11    5.7   344      9.6   893.6    0.00     411    78.7
 145   17:10   79.2    11    4.2   347      7.5   893.5    0.00     380    78.3
 145   17:20   79.4    12    5.1   349     12.2   893.5    0.00     346    77.8
 145   17:30   78.7    12    5.3   343      9.6   893.5    0.00     310    77.4
 145   17:40   78.7    12    5.7   334     13.7   893.6    0.00     274    77.2
 145   17:50   78.3    12    4.6   346     11.2   893.6    0.00     241    76.9
 145   18:00   78.2    12    4.2   352      7.5   893.6    0.00     192    76.6
 145   18:10   76.9    13    5.0   343     10.4   893.7    0.00      92    76.3
 145   18:20   75.8    13    4.1   346      8.2   893.7    0.00      32    76.0
 145   18:30   75.0    14    3.1   350      6.9   893.7    0.00      68    75.6
 145   18:40   74.5    14    3.5   345      7.7   893.7    0.00      23    75.3
 145   18:50   74.2    13    2.3   356      5.8   893.9    0.00      11    74.9
 145   19:00   74.1    13    2.1   344      4.4   894.1    0.00       6    74.6
 145   19:10   73.4    14    2.3   350      6.4   894.2    0.00       0    74.3
 145   19:20   72.3    15    0.8    28      2.0   894.3    0.00       0    74.0
 145   19:30   70.1    19    0.0    70      1.3   894.3    0.00       0    73.6
 145   19:40   67.8    21    1.2    39      2.3   894.4    0.00       0    73.3
 145   19:50   68.1    19    0.6    40      1.9   894.6    0.00       0    73.0
 145   20:00   67.1    21    1.4    50      2.2   894.7    0.00       0    72.6
 145   20:10   66.1    20    1.1    32      1.7   894.8    0.00       0    72.3
 145   20:20   66.1    19    1.5    40      3.2   894.9    0.00       0    72.0
 145   20:30   65.7    19    1.7    53      2.6   895.0    0.00       0    71.7
 145   20:40   65.0    19    1.1    43      2.2   895.1    0.00       0    71.4
 145   20:50   64.3    20    1.5    56      2.4   895.3    0.00       0    71.2
 145   21:00   63.5    22    1.8    59      2.9   895.3    0.00       0    70.9
 145   21:10   62.7    22    1.9    55      3.0   895.5    0.00       0    70.7
 145   21:20   62.2    22    1.5    42      3.0   895.5    0.00       0    70.4
 145   21:30   62.3    21    2.1    58      4.2   895.6    0.00       0    70.2
 145   21:40   62.2    21    1.5    55      3.0   895.7    0.00       0    69.9

Return to Alamo, Nevada graphs page.


Western Regional Climate Center,wrcc@dri.edu